SKCL/CLO METAR and TAF weather

Enter ICAO airport designator
Station Type Date Time Source
SKCL METAR 2020/03/28 15:00 UTC NOAA

SKCL 281500Z VRB03KT 9000 SCT020 27/19 A2998 NOSIG RMK HZ


Station Type Date Time Source
SKCL Decoded METAR 2020/03/28 15:00 UTC NOAA

Cali / Alfonso Bonillaaragon, Colombia (SKCL) 03-33N 076-23W 969M
Mar 28, 2020 - 11:00 AM EDT / 2020.03.28 1500 UTC
Wind: Variable at 3 MPH (3 KT):0
Visibility: 5 mile(s):0
Sky conditions: partly cloudy
Temperature: 80 F (27 C)
Dew Point: 66 F (19 C)
Relative Humidity: 61%
Pressure (altimeter): 29.98 in. Hg (1015 hPa)
ob: SKCL 281500Z VRB03KT 9000 SCT020 27/19 A2998 NOSIG RMK HZ
cycle: 15

Station Type Date Time Source
SKCL TAF 2020/03/28 12:43 UTC NOAA

TAF SKCL 281030Z 2812/2912 05004KT 9999 FEW030 SCT120
TEMPO 2812/2813 7000 VCFG SCT017
BECMG 2816/2818 32012KT
TEMPO 2819/2823 7000 RADZ SCT025TCU
BECMG 2900/2902 VRB02KT PROB40
TEMPO 2910/2912 5000 VCFG SCT015 TX32/2819Z TN19/2910Z

Example: see airport list